WAJJ

Details ICAO WAJJ (DJJ)
Name Jayapura Sentani
Region Indonesia
Timezone Asia/Jayapura (UTC+9.0)
Plans Departing 67
Arriving 66
Stats Elevation 289 ft / 88 m (AMSL)
Location -2.576982° 140.516471°
Runways 1
Magnetic Variation 3.270° E
Sunrise 2017-12-13 20:25:47 UTC / 2017-12-14 05:25:47 Local
Sunset 2017-12-14 08:41:53 UTC / 2017-12-14 17:41:53 Local
Advertisement - Login to hide

Runways

ID Width Length Bearing (true) Bearing (mag) Surface Threshold Offset Overrun Length
12 148 ft / 45 m 7,172 ft / 2,186 m 126.72° 123.45° Asphalt 0 ft / 0 m 197 ft / 60 m
30 148 ft / 45 m 7,172 ft / 2,186 m 306.72° 303.45° Asphalt 0 ft / 0 m 197 ft / 60 m

Approach Navaids

Runway Type Ident Frequency Range Bearing (true) Bearing (mag) Slope Elevation
30 Localiser IJPA 110.30 MHz 18 nm / 33 km 306.72° 303.45° - 289 ft / 88 m (AMSL)
30 Glidescope IJPA 110.30 MHz 10 nm / 19 km 306.72° 303.45° 3.00° 289 ft / 88 m (AMSL)
30 DME IJPA 110.30 MHz 18 nm / 33 km - - - 289 ft / 88 m (AMSL)

Map

Weather


0- 5 10 15 20 25 30 35+ Temperature / ° C

Clouds and Precipitation
Forecast for 2017-12-13 18:00 UTC. Updated 2 hours ago

Ground ~20,000 ft ~40,000 ft Winds

METAR

WAJJ 131600Z 00000KT 8000 FEW013 23/22 Q1006 NOSIG

TAF

Not found

Frequencies

Recorded 126.25 MHz ATIS
Tower 118.10 MHz TWR
Recorded 128.80 MHz ATIS
Approach 119.10 MHz JAYAPURA APP
Warning: Do not use this data for real-world aviation or navigation. No guarantee of current accuracy is given.